sensor_id;sensor_type;location;lat;lon;timestamp;P1;durP1;ratioP1;P2;durP2;ratioP2
4084;SDS011;2057;50.858;6.572;2023-03-16T00:00:52;4.80;;;4.00;;
4084;SDS011;2057;50.858;6.572;2023-03-16T00:03:17;9.30;;;4.30;;
4084;SDS011;2057;50.858;6.572;2023-03-16T00:05:45;7.30;;;4.50;;
4084;SDS011;2057;50.858;6.572;2023-03-16T00:08:11;7.43;;;4.85;;
4084;SDS011;2057;50.858;6.572;2023-03-16T00:10:37;8.50;;;4.30;;
4084;SDS011;2057;50.858;6.572;2023-03-16T00:13:02;15.23;;;4.07;;
4084;SDS011;2057;50.858;6.572;2023-03-16T00:15:35;5.60;;;4.20;;
4084;SDS011;2057;50.858;6.572;2023-03-16T00:18:00;4.40;;;3.53;;
4084;SDS011;2057;50.858;6.572;2023-03-16T00:20:26;4.60;;;3.03;;
4084;SDS011;2057;50.858;6.572;2023-03-16T00:22:54;7.47;;;3.40;;
4084;SDS011;2057;50.858;6.572;2023-03-16T00:25:21;6.78;;;4.20;;
4084;SDS011;2057;50.858;6.572;2023-03-16T00:27:48;5.22;;;3.63;;
4084;SDS011;2057;50.858;6.572;2023-03-16T00:30:13;11.83;;;4.03;;
4084;SDS011;2057;50.858;6.572;2023-03-16T00:32:41;14.45;;;3.95;;
4084;SDS011;2057;50.858;6.572;2023-03-16T00:35:08;4.07;;;3.40;;
4084;SDS011;2057;50.858;6.572;2023-03-16T00:37:34;7.77;;;3.60;;
4084;SDS011;2057;50.858;6.572;2023-03-16T00:40:01;8.95;;;3.53;;
4084;SDS011;2057;50.858;6.572;2023-03-16T00:42:28;8.30;;;4.43;;
4084;SDS011;2057;50.858;6.572;2023-03-16T00:45:03;11.23;;;3.45;;
4084;SDS011;2057;50.858;6.572;2023-03-16T00:47:30;9.23;;;3.58;;
4084;SDS011;2057;50.858;6.572;2023-03-16T00:49:57;5.13;;;3.40;;
4084;SDS011;2057;50.858;6.572;2023-03-16T00:52:24;7.13;;;3.97;;
4084;SDS011;2057;50.858;6.572;2023-03-16T00:54:51;8.50;;;4.10;;
4084;SDS011;2057;50.858;6.572;2023-03-16T00:57:19;9.38;;;3.83;;
4084;SDS011;2057;50.858;6.572;2023-03-16T00:59:46;3.72;;;3.38;;
4084;SDS011;2057;50.858;6.572;2023-03-16T01:02:13;5.93;;;3.60;;
4084;SDS011;2057;50.858;6.572;2023-03-16T01:04:43;4.75;;;4.25;;
4084;SDS011;2057;50.858;6.572;2023-03-16T01:07:09;5.43;;;3.57;;
4084;SDS011;2057;50.858;6.572;2023-03-16T01:09:37;8.82;;;3.70;;
4084;SDS011;2057;50.858;6.572;2023-03-16T01:12:07;3.72;;;2.97;;
4084;SDS011;2057;50.858;6.572;2023-03-16T01:14:40;16.60;;;4.15;;
4084;SDS011;2057;50.858;6.572;2023-03-16T01:17:07;15.45;;;4.28;;
4084;SDS011;2057;50.858;6.572;2023-03-16T01:19:33;6.45;;;3.78;;
4084;SDS011;2057;50.858;6.572;2023-03-16T01:22:01;5.45;;;3.30;;
4084;SDS011;2057;50.858;6.572;2023-03-16T01:24:30;5.55;;;3.00;;
4084;SDS011;2057;50.858;6.572;2023-03-16T01:26:56;5.40;;;2.97;;
4084;SDS011;2057;50.858;6.572;2023-03-16T01:29:21;6.37;;;2.93;;
4084;SDS011;2057;50.858;6.572;2023-03-16T01:31:47;8.20;;;3.13;;
4084;SDS011;2057;50.858;6.572;2023-03-16T01:34:14;7.60;;;3.40;;
4084;SDS011;2057;50.858;6.572;2023-03-16T01:36:42;4.40;;;3.55;;
4084;SDS011;2057;50.858;6.572;2023-03-16T01:39:11;4.93;;;3.25;;
4084;SDS011;2057;50.858;6.572;2023-03-16T01:41:38;7.00;;;3.00;;
4084;SDS011;2057;50.858;6.572;2023-03-16T01:44:05;6.18;;;3.70;;
4084;SDS011;2057;50.858;6.572;2023-03-16T01:46:30;4.70;;;3.50;;
4084;SDS011;2057;50.858;6.572;2023-03-16T01:51:28;4.40;;;3.50;;
4084;SDS011;2057;50.858;6.572;2023-03-16T01:54:11;9.00;;;3.50;;
4084;SDS011;2057;50.858;6.572;2023-03-16T02:02:12;9.02;;;3.78;;
4084;SDS011;2057;50.858;6.572;2023-03-16T02:04:47;5.60;;;3.63;;
4084;SDS011;2057;50.858;6.572;2023-03-16T02:07:14;5.70;;;3.08;;
4084;SDS011;2057;50.858;6.572;2023-03-16T02:09:42;4.97;;;3.28;;
4084;SDS011;2057;50.858;6.572;2023-03-16T02:12:13;4.05;;;2.88;;
4084;SDS011;2057;50.858;6.572;2023-03-16T02:14:42;5.97;;;3.22;;
4084;SDS011;2057;50.858;6.572;2023-03-16T02:17:16;7.35;;;3.50;;
4084;SDS011;2057;50.858;6.572;2023-03-16T02:22:47;10.27;;;2.85;;
4084;SDS011;2057;50.858;6.572;2023-03-16T02:25:17;10.60;;;3.72;;
4084;SDS011;2057;50.858;6.572;2023-03-16T02:30:28;3.95;;;3.50;;
4084;SDS011;2057;50.858;6.572;2023-03-16T02:32:56;7.38;;;3.50;;
4084;SDS011;2057;50.858;6.572;2023-03-16T02:35:22;5.73;;;3.53;;
4084;SDS011;2057;50.858;6.572;2023-03-16T02:37:50;3.30;;;2.83;;
4084;SDS011;2057;50.858;6.572;2023-03-16T02:40:20;3.10;;;2.35;;
4084;SDS011;2057;50.858;6.572;2023-03-16T02:43:36;7.55;;;3.50;;
4084;SDS011;2057;50.858;6.572;2023-03-16T02:45:42;2.88;;;2.30;;
4084;SDS011;2057;50.858;6.572;2023-03-16T02:48:26;4.30;;;2.88;;
4084;SDS011;2057;50.858;6.572;2023-03-16T02:50:56;4.93;;;2.50;;
4084;SDS011;2057;50.858;6.572;2023-03-16T02:53:24;5.80;;;2.40;;
4084;SDS011;2057;50.858;6.572;2023-03-16T02:55:50;3.33;;;2.43;;
4084;SDS011;2057;50.858;6.572;2023-03-16T02:58:15;5.70;;;2.87;;
4084;SDS011;2057;50.858;6.572;2023-03-16T03:00:41;4.82;;;2.75;;
4084;SDS011;2057;50.858;6.572;2023-03-16T03:03:09;4.35;;;2.85;;
4084;SDS011;2057;50.858;6.572;2023-03-16T03:05:40;3.10;;;2.20;;
4084;SDS011;2057;50.858;6.572;2023-03-16T03:08:06;4.85;;;3.38;;
4084;SDS011;2057;50.858;6.572;2023-03-16T03:10:31;9.03;;;3.80;;
4084;SDS011;2057;50.858;6.572;2023-03-16T03:12:57;8.17;;;3.47;;
4084;SDS011;2057;50.858;6.572;2023-03-16T03:15:22;3.47;;;3.17;;
4084;SDS011;2057;50.858;6.572;2023-03-16T03:17:48;8.07;;;3.20;;
4084;SDS011;2057;50.858;6.572;2023-03-16T03:20:14;6.73;;;2.70;;
4084;SDS011;2057;50.858;6.572;2023-03-16T03:22:43;4.88;;;3.00;;
4084;SDS011;2057;50.858;6.572;2023-03-16T03:25:12;6.05;;;3.30;;
4084;SDS011;2057;50.858;6.572;2023-03-16T03:27:39;5.28;;;3.13;;
4084;SDS011;2057;50.858;6.572;2023-03-16T03:30:17;6.60;;;3.03;;
4084;SDS011;2057;50.858;6.572;2023-03-16T03:32:45;6.80;;;3.13;;
4084;SDS011;2057;50.858;6.572;2023-03-16T03:35:11;3.23;;;2.77;;
4084;SDS011;2057;50.858;6.572;2023-03-16T03:37:39;3.65;;;3.35;;
4084;SDS011;2057;50.858;6.572;2023-03-16T03:40:06;7.15;;;3.15;;
4084;SDS011;2057;50.858;6.572;2023-03-16T03:42:34;4.63;;;3.45;;
4084;SDS011;2057;50.858;6.572;2023-03-16T03:44:59;3.47;;;2.70;;
4084;SDS011;2057;50.858;6.572;2023-03-16T03:47:27;6.20;;;3.13;;
4084;SDS011;2057;50.858;6.572;2023-03-16T03:49:54;10.20;;;3.80;;
4084;SDS011;2057;50.858;6.572;2023-03-16T03:52:20;6.83;;;3.50;;
4084;SDS011;2057;50.858;6.572;2023-03-16T03:54:45;6.27;;;3.17;;
4084;SDS011;2057;50.858;6.572;2023-03-16T03:57:10;4.23;;;3.30;;
4084;SDS011;2057;50.858;6.572;2023-03-16T03:59:38;4.07;;;2.30;;
4084;SDS011;2057;50.858;6.572;2023-03-16T04:02:10;3.95;;;2.83;;
4084;SDS011;2057;50.858;6.572;2023-03-16T04:04:39;4.28;;;3.03;;
4084;SDS011;2057;50.858;6.572;2023-03-16T04:07:06;3.47;;;2.85;;
4084;SDS011;2057;50.858;6.572;2023-03-16T04:09:31;3.23;;;2.73;;
4084;SDS011;2057;50.858;6.572;2023-03-16T04:11:58;4.57;;;2.85;;
4084;SDS011;2057;50.858;6.572;2023-03-16T04:14:24;7.53;;;2.95;;
4084;SDS011;2057;50.858;6.572;2023-03-16T04:16:50;4.50;;;2.70;;
4084;SDS011;2057;50.858;6.572;2023-03-16T04:19:15;6.77;;;3.30;;
4084;SDS011;2057;50.858;6.572;2023-03-16T04:21:40;8.40;;;3.47;;
4084;SDS011;2057;50.858;6.572;2023-03-16T04:24:06;7.43;;;3.00;;
4084;SDS011;2057;50.858;6.572;2023-03-16T04:26:31;7.43;;;3.47;;
4084;SDS011;2057;50.858;6.572;2023-03-16T04:28:58;4.10;;;3.08;;
4084;SDS011;2057;50.858;6.572;2023-03-16T04:31:24;5.97;;;3.57;;
4084;SDS011;2057;50.858;6.572;2023-03-16T04:33:52;4.97;;;3.72;;
4084;SDS011;2057;50.858;6.572;2023-03-16T04:36:18;6.70;;;3.05;;
4084;SDS011;2057;50.858;6.572;2023-03-16T04:38:48;3.15;;;2.85;;
4084;SDS011;2057;50.858;6.572;2023-03-16T04:41:14;13.52;;;3.30;;
4084;SDS011;2057;50.858;6.572;2023-03-16T04:43:39;2.73;;;2.53;;
4084;SDS011;2057;50.858;6.572;2023-03-16T04:46:05;9.43;;;3.20;;
4084;SDS011;2057;50.858;6.572;2023-03-16T04:48:31;3.30;;;3.00;;
4084;SDS011;2057;50.858;6.572;2023-03-16T04:50:56;4.27;;;2.63;;
4084;SDS011;2057;50.858;6.572;2023-03-16T04:53:22;3.53;;;2.85;;
4084;SDS011;2057;50.858;6.572;2023-03-16T04:55:47;9.63;;;2.70;;
4084;SDS011;2057;50.858;6.572;2023-03-16T04:58:15;8.80;;;3.03;;
4084;SDS011;2057;50.858;6.572;2023-03-16T05:00:41;3.70;;;2.97;;
4084;SDS011;2057;50.858;6.572;2023-03-16T05:03:07;6.13;;;3.27;;
4084;SDS011;2057;50.858;6.572;2023-03-16T05:05:38;3.53;;;3.08;;
4084;SDS011;2057;50.858;6.572;2023-03-16T05:08:05;4.18;;;3.40;;
4084;SDS011;2057;50.858;6.572;2023-03-16T05:10:31;5.05;;;4.20;;
4084;SDS011;2057;50.858;6.572;2023-03-16T05:12:58;6.45;;;4.60;;
4084;SDS011;2057;50.858;6.572;2023-03-16T05:15:24;3.50;;;3.20;;
4084;SDS011;2057;50.858;6.572;2023-03-16T05:17:49;7.18;;;3.20;;
4084;SDS011;2057;50.858;6.572;2023-03-16T05:20:15;9.67;;;3.60;;
4084;SDS011;2057;50.858;6.572;2023-03-16T05:22:42;4.50;;;3.40;;
4084;SDS011;2057;50.858;6.572;2023-03-16T05:25:09;5.10;;;3.13;;
4084;SDS011;2057;50.858;6.572;2023-03-16T05:27:39;3.70;;;3.30;;
4084;SDS011;2057;50.858;6.572;2023-03-16T05:30:12;4.30;;;3.30;;
4084;SDS011;2057;50.858;6.572;2023-03-16T05:32:42;3.35;;;3.05;;
4084;SDS011;2057;50.858;6.572;2023-03-16T05:35:08;5.55;;;3.05;;
4084;SDS011;2057;50.858;6.572;2023-03-16T05:37:37;3.30;;;3.10;;
4084;SDS011;2057;50.858;6.572;2023-03-16T05:40:07;6.63;;;3.77;;
4084;SDS011;2057;50.858;6.572;2023-03-16T05:42:47;5.60;;;3.78;;
4084;SDS011;2057;50.858;6.572;2023-03-16T05:45:18;5.22;;;3.63;;
4084;SDS011;2057;50.858;6.572;2023-03-16T05:47:45;6.57;;;3.50;;
4084;SDS011;2057;50.858;6.572;2023-03-16T05:50:11;5.27;;;4.00;;
4084;SDS011;2057;50.858;6.572;2023-03-16T05:52:40;6.15;;;4.85;;
4084;SDS011;2057;50.858;6.572;2023-03-16T05:55:06;6.57;;;3.88;;
4084;SDS011;2057;50.858;6.572;2023-03-16T05:57:35;5.15;;;3.97;;
4084;SDS011;2057;50.858;6.572;2023-03-16T06:00:01;8.10;;;4.60;;
4084;SDS011;2057;50.858;6.572;2023-03-16T06:02:36;10.43;;;4.55;;
4084;SDS011;2057;50.858;6.572;2023-03-16T06:05:04;5.17;;;3.90;;
4084;SDS011;2057;50.858;6.572;2023-03-16T06:07:31;6.68;;;4.00;;
4084;SDS011;2057;50.858;6.572;2023-03-16T06:09:57;9.07;;;3.80;;
4084;SDS011;2057;50.858;6.572;2023-03-16T06:12:22;8.03;;;3.70;;
4084;SDS011;2057;50.858;6.572;2023-03-16T06:14:47;10.37;;;4.20;;
4084;SDS011;2057;50.858;6.572;2023-03-16T06:17:15;14.90;;;5.43;;
4084;SDS011;2057;50.858;6.572;2023-03-16T06:19:40;7.70;;;5.30;;
4084;SDS011;2057;50.858;6.572;2023-03-16T06:22:05;7.90;;;5.10;;
4084;SDS011;2057;50.858;6.572;2023-03-16T06:24:32;10.65;;;5.20;;
4084;SDS011;2057;50.858;6.572;2023-03-16T06:26:57;8.83;;;5.37;;
4084;SDS011;2057;50.858;6.572;2023-03-16T06:29:23;14.23;;;5.10;;
4084;SDS011;2057;50.858;6.572;2023-03-16T06:31:48;7.70;;;4.40;;
4084;SDS011;2057;50.858;6.572;2023-03-16T06:34:16;6.80;;;3.42;;
4084;SDS011;2057;50.858;6.572;2023-03-16T06:36:44;5.75;;;3.42;;
4084;SDS011;2057;50.858;6.572;2023-03-16T06:39:12;12.02;;;4.75;;
4084;SDS011;2057;50.858;6.572;2023-03-16T06:41:40;5.38;;;3.85;;
4084;SDS011;2057;50.858;6.572;2023-03-16T06:44:06;11.95;;;4.38;;
4084;SDS011;2057;50.858;6.572;2023-03-16T06:46:32;7.25;;;4.82;;
4084;SDS011;2057;50.858;6.572;2023-03-16T06:48:58;5.10;;;3.70;;
4084;SDS011;2057;50.858;6.572;2023-03-16T06:51:26;7.68;;;4.40;;
4084;SDS011;2057;50.858;6.572;2023-03-16T06:53:51;6.67;;;4.10;;
4084;SDS011;2057;50.858;6.572;2023-03-16T06:56:17;6.90;;;4.73;;
4084;SDS011;2057;50.858;6.572;2023-03-16T06:58:42;5.80;;;3.80;;
4084;SDS011;2057;50.858;6.572;2023-03-16T07:01:10;5.27;;;4.43;;
4084;SDS011;2057;50.858;6.572;2023-03-16T07:03:36;6.50;;;4.90;;
4084;SDS011;2057;50.858;6.572;2023-03-16T07:06:02;21.57;;;5.03;;
4084;SDS011;2057;50.858;6.572;2023-03-16T07:08:27;8.17;;;4.50;;
4084;SDS011;2057;50.858;6.572;2023-03-16T07:10:53;4.13;;;3.70;;
4084;SDS011;2057;50.858;6.572;2023-03-16T07:13:26;7.77;;;4.70;;
4084;SDS011;2057;50.858;6.572;2023-03-16T07:15:51;6.75;;;5.53;;
4084;SDS011;2057;50.858;6.572;2023-03-16T07:18:20;5.93;;;3.47;;
4084;SDS011;2057;50.858;6.572;2023-03-16T07:20:45;4.35;;;3.75;;
4084;SDS011;2057;50.858;6.572;2023-03-16T07:23:13;8.33;;;4.40;;
4084;SDS011;2057;50.858;6.572;2023-03-16T07:25:39;4.05;;;3.65;;
4084;SDS011;2057;50.858;6.572;2023-03-16T07:28:07;13.13;;;4.50;;
4084;SDS011;2057;50.858;6.572;2023-03-16T07:30:32;9.05;;;3.60;;
4084;SDS011;2057;50.858;6.572;2023-03-16T07:32:57;8.50;;;4.23;;
4084;SDS011;2057;50.858;6.572;2023-03-16T07:35:25;11.60;;;4.77;;
4084;SDS011;2057;50.858;6.572;2023-03-16T07:37:50;7.35;;;4.00;;
4084;SDS011;2057;50.858;6.572;2023-03-16T07:40:16;4.10;;;3.40;;
4084;SDS011;2057;50.858;6.572;2023-03-16T07:42:42;6.90;;;3.60;;
4084;SDS011;2057;50.858;6.572;2023-03-16T07:45:08;5.73;;;3.93;;
4084;SDS011;2057;50.858;6.572;2023-03-16T07:47:34;5.13;;;3.20;;
4084;SDS011;2057;50.858;6.572;2023-03-16T07:49:59;7.03;;;4.43;;
4084;SDS011;2057;50.858;6.572;2023-03-16T07:52:25;14.70;;;3.83;;
4084;SDS011;2057;50.858;6.572;2023-03-16T07:54:51;6.30;;;4.30;;
4084;SDS011;2057;50.858;6.572;2023-03-16T07:57:16;10.63;;;3.90;;
4084;SDS011;2057;50.858;6.572;2023-03-16T07:59:45;7.60;;;3.60;;
4084;SDS011;2057;50.858;6.572;2023-03-16T08:02:11;4.03;;;3.67;;
4084;SDS011;2057;50.858;6.572;2023-03-16T08:04:38;4.82;;;3.67;;
4084;SDS011;2057;50.858;6.572;2023-03-16T08:07:06;8.95;;;3.88;;
4084;SDS011;2057;50.858;6.572;2023-03-16T08:09:32;11.15;;;4.60;;
4084;SDS011;2057;50.858;6.572;2023-03-16T08:12:00;5.35;;;3.95;;
4084;SDS011;2057;50.858;6.572;2023-03-16T08:14:36;3.65;;;2.92;;
4084;SDS011;2057;50.858;6.572;2023-03-16T08:17:09;5.60;;;4.05;;
4084;SDS011;2057;50.858;6.572;2023-03-16T08:19:38;8.43;;;4.18;;
4084;SDS011;2057;50.858;6.572;2023-03-16T08:22:04;6.47;;;4.43;;
4084;SDS011;2057;50.858;6.572;2023-03-16T08:24:32;4.40;;;3.70;;
4084;SDS011;2057;50.858;6.572;2023-03-16T08:26:58;5.40;;;2.95;;
4084;SDS011;2057;50.858;6.572;2023-03-16T08:29:26;4.25;;;3.83;;
4084;SDS011;2057;50.858;6.572;2023-03-16T08:31:51;5.30;;;3.10;;
4084;SDS011;2057;50.858;6.572;2023-03-16T08:34:21;4.18;;;3.78;;
4084;SDS011;2057;50.858;6.572;2023-03-16T08:36:51;12.93;;;4.63;;
4084;SDS011;2057;50.858;6.572;2023-03-16T08:39:17;23.52;;;4.90;;
4084;SDS011;2057;50.858;6.572;2023-03-16T08:41:45;8.57;;;3.97;;
4084;SDS011;2057;50.858;6.572;2023-03-16T08:44:12;8.27;;;4.32;;
4084;SDS011;2057;50.858;6.572;2023-03-16T08:46:37;5.10;;;4.60;;
4084;SDS011;2057;50.858;6.572;2023-03-16T08:49:04;7.97;;;3.80;;
4084;SDS011;2057;50.858;6.572;2023-03-16T08:51:30;18.27;;;4.50;;
4084;SDS011;2057;50.858;6.572;2023-03-16T08:53:56;5.00;;;4.30;;
4084;SDS011;2057;50.858;6.572;2023-03-16T08:56:24;5.70;;;3.95;;
4084;SDS011;2057;50.858;6.572;2023-03-16T08:58:50;5.97;;;3.73;;
4084;SDS011;2057;50.858;6.572;2023-03-16T09:01:16;5.57;;;4.00;;
4084;SDS011;2057;50.858;6.572;2023-03-16T09:03:44;4.25;;;3.90;;
4084;SDS011;2057;50.858;6.572;2023-03-16T09:06:14;8.57;;;3.38;;
4084;SDS011;2057;50.858;6.572;2023-03-16T09:08:40;5.95;;;4.30;;
4084;SDS011;2057;50.858;6.572;2023-03-16T09:11:06;3.97;;;3.17;;
4084;SDS011;2057;50.858;6.572;2023-03-16T09:13:33;6.97;;;3.60;;
4084;SDS011;2057;50.858;6.572;2023-03-16T09:16:00;9.88;;;3.90;;
4084;SDS011;2057;50.858;6.572;2023-03-16T09:18:25;4.93;;;4.10;;
4084;SDS011;2057;50.858;6.572;2023-03-16T09:20:57;6.32;;;3.50;;
4084;SDS011;2057;50.858;6.572;2023-03-16T09:23:26;4.13;;;3.25;;
4084;SDS011;2057;50.858;6.572;2023-03-16T09:25:55;8.07;;;3.35;;
4084;SDS011;2057;50.858;6.572;2023-03-16T09:28:25;4.43;;;3.35;;
4084;SDS011;2057;50.858;6.572;2023-03-16T09:30:55;6.65;;;3.35;;
4084;SDS011;2057;50.858;6.572;2023-03-16T09:33:23;7.53;;;4.18;;
4084;SDS011;2057;50.858;6.572;2023-03-16T09:35:55;7.00;;;3.78;;
4084;SDS011;2057;50.858;6.572;2023-03-16T09:38:21;7.73;;;3.33;;
4084;SDS011;2057;50.858;6.572;2023-03-16T09:40:54;10.60;;;3.60;;
4084;SDS011;2057;50.858;6.572;2023-03-16T09:46:06;4.15;;;3.17;;
4084;SDS011;2057;50.858;6.572;2023-03-16T09:48:36;5.72;;;3.60;;
4084;SDS011;2057;50.858;6.572;2023-03-16T09:51:07;6.78;;;2.88;;
4084;SDS011;2057;50.858;6.572;2023-03-16T09:53:49;4.90;;;3.33;;
4084;SDS011;2057;50.858;6.572;2023-03-16T09:56:39;8.05;;;3.17;;
4084;SDS011;2057;50.858;6.572;2023-03-16T09:59:13;5.30;;;3.05;;
4084;SDS011;2057;50.858;6.572;2023-03-16T10:12:44;4.15;;;3.15;;
4084;SDS011;2057;50.858;6.572;2023-03-16T10:15:19;5.63;;;3.72;;
4084;SDS011;2057;50.858;6.572;2023-03-16T10:20:39;7.05;;;3.40;;
4084;SDS011;2057;50.858;6.572;2023-03-16T10:23:16;7.13;;;3.10;;
4084;SDS011;2057;50.858;6.572;2023-03-16T10:25:47;5.30;;;3.40;;
4084;SDS011;2057;50.858;6.572;2023-03-16T10:28:24;3.78;;;2.60;;
4084;SDS011;2057;50.858;6.572;2023-03-16T10:30:52;8.63;;;3.00;;
4084;SDS011;2057;50.858;6.572;2023-03-16T10:33:29;9.17;;;2.73;;
4084;SDS011;2057;50.858;6.572;2023-03-16T10:41:02;5.50;;;2.70;;
4084;SDS011;2057;50.858;6.572;2023-03-16T10:43:40;2.30;;;2.07;;
4084;SDS011;2057;50.858;6.572;2023-03-16T10:46:08;3.07;;;2.17;;
4084;SDS011;2057;50.858;6.572;2023-03-16T10:48:38;8.10;;;2.27;;
4084;SDS011;2057;50.858;6.572;2023-03-16T10:51:23;3.43;;;2.33;;
4084;SDS011;2057;50.858;6.572;2023-03-16T10:53:55;5.73;;;2.60;;
4084;SDS011;2057;50.858;6.572;2023-03-16T10:56:22;3.40;;;2.17;;
4084;SDS011;2057;50.858;6.572;2023-03-16T10:58:49;19.17;;;2.80;;
4084;SDS011;2057;50.858;6.572;2023-03-16T11:01:20;4.30;;;2.70;;
4084;SDS011;2057;50.858;6.572;2023-03-16T11:03:52;4.63;;;2.70;;
4084;SDS011;2057;50.858;6.572;2023-03-16T11:06:26;2.63;;;2.00;;
4084;SDS011;2057;50.858;6.572;2023-03-16T11:09:06;5.90;;;2.13;;
4084;SDS011;2057;50.858;6.572;2023-03-16T11:11:37;7.70;;;2.80;;
4084;SDS011;2057;50.858;6.572;2023-03-16T11:14:18;5.90;;;3.00;;
4084;SDS011;2057;50.858;6.572;2023-03-16T11:17:01;3.50;;;2.50;;
4084;SDS011;2057;50.858;6.572;2023-03-16T11:19:32;4.27;;;2.53;;
4084;SDS011;2057;50.858;6.572;2023-03-16T11:22:21;1.83;;;1.70;;
4084;SDS011;2057;50.858;6.572;2023-03-16T11:24:49;3.43;;;2.10;;
4084;SDS011;2057;50.858;6.572;2023-03-16T11:27:23;6.50;;;2.07;;
4084;SDS011;2057;50.858;6.572;2023-03-16T11:32:49;5.90;;;2.40;;
4084;SDS011;2057;50.858;6.572;2023-03-16T11:35:18;3.17;;;1.73;;
4084;SDS011;2057;50.858;6.572;2023-03-16T11:37:56;1.83;;;1.50;;
4084;SDS011;2057;50.858;6.572;2023-03-16T11:48:36;2.50;;;1.70;;
4084;SDS011;2057;50.858;6.572;2023-03-16T11:53:46;1.40;;;1.23;;
4084;SDS011;2057;50.858;6.572;2023-03-16T11:56:27;2.03;;;1.40;;
4084;SDS011;2057;50.858;6.572;2023-03-16T12:01:53;7.20;;;1.40;;
4084;SDS011;2057;50.858;6.572;2023-03-16T12:07:11;3.10;;;1.77;;
4084;SDS011;2057;50.858;6.572;2023-03-16T12:15:18;2.90;;;1.20;;
4084;SDS011;2057;50.858;6.572;2023-03-16T12:17:51;7.83;;;1.70;;
4084;SDS011;2057;50.858;6.572;2023-03-16T12:20:25;3.83;;;1.33;;
4084;SDS011;2057;50.858;6.572;2023-03-16T12:23:03;1.30;;;1.20;;
4084;SDS011;2057;50.858;6.572;2023-03-16T12:25:36;4.53;;;1.37;;
4084;SDS011;2057;50.858;6.572;2023-03-16T12:28:20;2.73;;;1.50;;
4084;SDS011;2057;50.858;6.572;2023-03-16T12:30:52;1.50;;;1.40;;
4084;SDS011;2057;50.858;6.572;2023-03-16T12:33:30;4.30;;;1.50;;
4084;SDS011;2057;50.858;6.572;2023-03-16T12:38:56;1.30;;;1.20;;
4084;SDS011;2057;50.858;6.572;2023-03-16T12:44:39;2.63;;;1.53;;
4084;SDS011;2057;50.858;6.572;2023-03-16T12:47:41;5.00;;;1.33;;
4084;SDS011;2057;50.858;6.572;2023-03-16T12:50:14;2.00;;;1.10;;
4084;SDS011;2057;50.858;6.572;2023-03-16T12:52:46;3.17;;;1.37;;
4084;SDS011;2057;50.858;6.572;2023-03-16T12:57:57;5.83;;;1.20;;
4084;SDS011;2057;50.858;6.572;2023-03-16T13:00:32;4.30;;;2.10;;
4084;SDS011;2057;50.858;6.572;2023-03-16T13:02:59;4.83;;;1.47;;
4084;SDS011;2057;50.858;6.572;2023-03-16T13:05:30;5.13;;;1.43;;
4084;SDS011;2057;50.858;6.572;2023-03-16T13:10:37;5.30;;;1.60;;
4084;SDS011;2057;50.858;6.572;2023-03-16T13:13:08;3.80;;;1.10;;
4084;SDS011;2057;50.858;6.572;2023-03-16T13:15:39;3.73;;;1.30;;
4084;SDS011;2057;50.858;6.572;2023-03-16T13:28:28;3.57;;;1.30;;
4084;SDS011;2057;50.858;6.572;2023-03-16T13:30:55;3.90;;;1.20;;
4084;SDS011;2057;50.858;6.572;2023-03-16T13:33:25;6.63;;;1.67;;
4084;SDS011;2057;50.858;6.572;2023-03-16T13:35:54;2.20;;;1.30;;
4084;SDS011;2057;50.858;6.572;2023-03-16T13:38:24;4.60;;;1.33;;
4084;SDS011;2057;50.858;6.572;2023-03-16T13:40:54;4.33;;;1.87;;
4084;SDS011;2057;50.858;6.572;2023-03-16T13:43:22;14.77;;;1.60;;
4084;SDS011;2057;50.858;6.572;2023-03-16T13:45:55;2.87;;;1.27;;
4084;SDS011;2057;50.858;6.572;2023-03-16T13:48:24;1.37;;;1.20;;
4084;SDS011;2057;50.858;6.572;2023-03-16T13:50:50;2.73;;;1.10;;
4084;SDS011;2057;50.858;6.572;2023-03-16T13:53:22;4.40;;;1.57;;
4084;SDS011;2057;50.858;6.572;2023-03-16T13:55:53;13.30;;;1.63;;
4084;SDS011;2057;50.858;6.572;2023-03-16T13:58:22;5.20;;;1.53;;
4084;SDS011;2057;50.858;6.572;2023-03-16T14:00:54;4.53;;;1.40;;
4084;SDS011;2057;50.858;6.572;2023-03-16T14:03:21;4.70;;;1.37;;
4084;SDS011;2057;50.858;6.572;2023-03-16T14:05:48;2.90;;;1.17;;
4084;SDS011;2057;50.858;6.572;2023-03-16T14:08:32;6.20;;;1.57;;
4084;SDS011;2057;50.858;6.572;2023-03-16T14:10:58;4.93;;;1.77;;
4084;SDS011;2057;50.858;6.572;2023-03-16T14:15:58;2.00;;;1.13;;
4084;SDS011;2057;50.858;6.572;2023-03-16T14:18:28;1.73;;;1.23;;
4084;SDS011;2057;50.858;6.572;2023-03-16T14:21:03;2.43;;;1.33;;
4084;SDS011;2057;50.858;6.572;2023-03-16T14:23:32;2.40;;;1.20;;
4084;SDS011;2057;50.858;6.572;2023-03-16T14:26:05;2.50;;;1.10;;
4084;SDS011;2057;50.858;6.572;2023-03-16T14:28:36;2.87;;;1.13;;
4084;SDS011;2057;50.858;6.572;2023-03-16T14:31:11;7.13;;;2.13;;
4084;SDS011;2057;50.858;6.572;2023-03-16T14:33:39;1.43;;;1.33;;
4084;SDS011;2057;50.858;6.572;2023-03-16T14:36:13;1.60;;;1.47;;
4084;SDS011;2057;50.858;6.572;2023-03-16T14:38:46;1.80;;;1.47;;
4084;SDS011;2057;50.858;6.572;2023-03-16T14:41:24;2.70;;;1.87;;
4084;SDS011;2057;50.858;6.572;2023-03-16T14:43:54;2.60;;;1.27;;
4084;SDS011;2057;50.858;6.572;2023-03-16T14:46:26;2.97;;;1.20;;
4084;SDS011;2057;50.858;6.572;2023-03-16T14:49:07;3.10;;;1.27;;
4084;SDS011;2057;50.858;6.572;2023-03-16T14:51:52;3.37;;;1.70;;
4084;SDS011;2057;50.858;6.572;2023-03-16T14:54:23;2.83;;;1.37;;
4084;SDS011;2057;50.858;6.572;2023-03-16T14:56:52;4.77;;;1.63;;
4084;SDS011;2057;50.858;6.572;2023-03-16T14:59:21;4.17;;;1.30;;
4084;SDS011;2057;50.858;6.572;2023-03-16T15:01:54;1.40;;;1.30;;
4084;SDS011;2057;50.858;6.572;2023-03-16T15:04:27;1.50;;;1.40;;
4084;SDS011;2057;50.858;6.572;2023-03-16T15:06:56;4.80;;;1.90;;
4084;SDS011;2057;50.858;6.572;2023-03-16T15:12:31;3.10;;;1.00;;
4084;SDS011;2057;50.858;6.572;2023-03-16T15:14:58;3.20;;;1.33;;
4084;SDS011;2057;50.858;6.572;2023-03-16T15:17:43;4.03;;;1.20;;
4084;SDS011;2057;50.858;6.572;2023-03-16T15:20:14;1.27;;;0.90;;
4084;SDS011;2057;50.858;6.572;2023-03-16T15:22:42;4.50;;;1.73;;
4084;SDS011;2057;50.858;6.572;2023-03-16T15:28:00;4.40;;;1.40;;
4084;SDS011;2057;50.858;6.572;2023-03-16T15:30:26;4.23;;;1.30;;
4084;SDS011;2057;50.858;6.572;2023-03-16T15:32:52;1.30;;;1.20;;
4084;SDS011;2057;50.858;6.572;2023-03-16T15:35:18;4.60;;;1.10;;
4084;SDS011;2057;50.858;6.572;2023-03-16T15:37:46;3.07;;;1.50;;
4084;SDS011;2057;50.858;6.572;2023-03-16T15:40:16;2.83;;;1.23;;
4084;SDS011;2057;50.858;6.572;2023-03-16T15:42:44;2.90;;;1.30;;
4084;SDS011;2057;50.858;6.572;2023-03-16T15:45:11;2.27;;;1.43;;
4084;SDS011;2057;50.858;6.572;2023-03-16T15:47:38;3.83;;;1.27;;
4084;SDS011;2057;50.858;6.572;2023-03-16T15:50:05;1.47;;;1.07;;
4084;SDS011;2057;50.858;6.572;2023-03-16T15:52:32;5.13;;;1.50;;
4084;SDS011;2057;50.858;6.572;2023-03-16T15:55:01;3.30;;;1.20;;
4084;SDS011;2057;50.858;6.572;2023-03-16T15:57:31;3.23;;;1.33;;
4084;SDS011;2057;50.858;6.572;2023-03-16T15:59:57;4.20;;;1.57;;
4084;SDS011;2057;50.858;6.572;2023-03-16T16:02:31;3.20;;;1.50;;
4084;SDS011;2057;50.858;6.572;2023-03-16T16:04:59;2.10;;;1.10;;
4084;SDS011;2057;50.858;6.572;2023-03-16T16:07:24;4.00;;;1.40;;
4084;SDS011;2057;50.858;6.572;2023-03-16T16:09:51;1.90;;;1.20;;
4084;SDS011;2057;50.858;6.572;2023-03-16T16:12:16;4.97;;;1.70;;
4084;SDS011;2057;50.858;6.572;2023-03-16T16:14:44;5.70;;;1.40;;
4084;SDS011;2057;50.858;6.572;2023-03-16T16:17:13;5.30;;;1.20;;
4084;SDS011;2057;50.858;6.572;2023-03-16T16:19:52;2.67;;;1.40;;
4084;SDS011;2057;50.858;6.572;2023-03-16T16:22:17;2.13;;;1.20;;
4084;SDS011;2057;50.858;6.572;2023-03-16T16:24:43;2.83;;;1.37;;
4084;SDS011;2057;50.858;6.572;2023-03-16T16:27:09;1.57;;;1.23;;
4084;SDS011;2057;50.858;6.572;2023-03-16T16:29:38;3.13;;;1.40;;
4084;SDS011;2057;50.858;6.572;2023-03-16T16:32:22;2.50;;;1.23;;
4084;SDS011;2057;50.858;6.572;2023-03-16T16:34:48;2.23;;;1.30;;
4084;SDS011;2057;50.858;6.572;2023-03-16T16:37:13;2.20;;;1.50;;
4084;SDS011;2057;50.858;6.572;2023-03-16T16:39:39;2.40;;;1.13;;
4084;SDS011;2057;50.858;6.572;2023-03-16T16:42:08;1.83;;;1.10;;
4084;SDS011;2057;50.858;6.572;2023-03-16T16:44:40;2.60;;;1.30;;
4084;SDS011;2057;50.858;6.572;2023-03-16T16:47:15;5.83;;;1.30;;
4084;SDS011;2057;50.858;6.572;2023-03-16T16:49:43;1.63;;;1.30;;
4084;SDS011;2057;50.858;6.572;2023-03-16T16:52:14;1.40;;;1.30;;
4084;SDS011;2057;50.858;6.572;2023-03-16T16:54:40;9.40;;;1.53;;
4084;SDS011;2057;50.858;6.572;2023-03-16T16:57:07;20.83;;;7.00;;